Terminal Aerodrome Forecast
Issued by NWS

Home | Current Version | Previous Version | Text Only | Print | Product List | Glossary On
Versions: 1 2 3 4 5 6 7 8 9 10 11 12 13
000
FTAK31 PAJN 052300
TAFAKT
TAF
PAKT 052320Z 0600/0624 31010KT 6SM -RA BR SCT015 OVC035
      TEMPO 0600/0604 3SM RA BR OVC020
     FM060400 VRB04KT P6SM VCSH SCT015 OVC025
     FM061200 14004KT 6SM -SHRA BKN015 OVC025
     FM062000 16004KT P6SM VCSH SCT020 OVC040
      AMD LTD TO CLD VIS AND WIND 0606/0615=

USA.gov is the U.S. government's official web portal to all federal, state and local government web resources and services.